Avis, PA

7:27 AM EST on January 30, 2015 (GMT -0500)
297 McElhattan Drive | Change Station
CLOSE
Current Station
Personal Weather Station
Location: McElhattan, PA
Elevation: 568 ft
Nearby Weather Stations
Active Advisory: Wind Chill Advisory

Elev 568 ft 41.16 °N, 77.36 °W | Updated 8 minutes ago

Overcast
Overcast
29.0 °F
Feels Like 29 °F
N
3.0
Wind Variable Wind from NW
Gusts 6.0 mph

Today
High -- | Low -- °F
--% Chance of Precip.
Yesterday
High -- | Low -- °F
Precip. -- in
7:22 AM 5:23 PM
Waxing Gibbous, 82% visible
Pressure 29.93 in
Visibility 10.0 miles
Clouds Mostly Cloudy 3300 ft
Mostly Cloudy 3900 ft
Overcast 7000 ft
Windchill 29 °F
Dew Point 26 °F
Humidity 87%
Rainfall 0.00 in
Snow Depth Not available.
UV 0.0 out of 12
Pollen .10 out of 12
Air Quality Not available.
Flu Activity Not available.
METAR KIPT 301154Z 29007KT 10SM BKN033 BKN039 OVC070 M01/M04 A2990 RMK AO2 SNE00 SLP133 P0000 60006 70012 T10111039 11011 21028 53005

More Conditions Fewer Conditions

Pressure 29.93 in
Visibility 10.0 miles
Clouds Mostly Cloudy 3300 ft
Mostly Cloudy 3900 ft
Overcast 7000 ft
Windchill 29 °F
Dew Point 26 °F
Humidity 87%
Rainfall 0.00 in
Snow Depth Not available.
UV 0.0 out of 12
Pollen .10 out of 12
Air Quality Not available.
Flu Activity Not available.
METAR KIPT 301154Z 29007KT 10SM BKN033 BKN039 OVC070 M01/M04 A2990 RMK AO2 SNE00 SLP133 P0000 60006 70012 T10111039 11011 21028 53005

More Conditions Fewer Conditions

Nowcast | as of 7:17 am EST on January 30, 2015

Post frontal snow bands have formed across central Pennsylvania in the gusty northwesterly flow this morning. In these bands the snow may be heavy at times with reduced visibilities. The snow bands will weaken as they move eastward. Snow accumulations around a half an inch in the heaviest bands is possible.

×

10-Day Weather Forecast

Almanac

Astronomy

Jan. 30, 2015 Rise Set
Actual Time
Civil Twilight
Nautical Twilight
Astronomical Twilight
Moon
Length of Visible Light
Length of Day
Tomorrow will be .
, % of the Moon is Illuminated

Today's Extremes

State Highs State Lows

Community

WunderPhotos

Upload Photos

1,791,738 photos uploaded!

WunderBlogs® & News

Nearby

Air Quality

  Air Quality AQ Index Pollutant
Not available.

Snow Depth

Station Depth Elevation

Earthquake Activity

City Distance Mag. Time & Date
Minimum magnitude displayed is 2.5.

Coastal Water Temperatures

Place Temperature

Nearby Weather Stations